Hundvaag 1 weather for Jan 1991
Month no. 43
Obs.
Da.
Temp. Dew Point Precip. Wind
Speed
Wind gusts Cloud cover Press. Humidity Wind dir. Sunny OPT
01.01.1991 3,5   9,8                
02.01.1991 4,0   8,4                
03.01.1991 4,0   16,7                
04.01.1991 1,9   6,6                
05.01.1991 4,4   9,4                
06.01.1991 5,2   19,4             1  
07.01.1991 3,0   2,9                
08.01.1991 0,8   14,2                
09.01.1991 1,6   7,0                
10.01.1991 1,2   6,1                
11.01.1991 2,0   14,4                
12.01.1991 2,3   6,1                
13.01.1991 2,6   6,1             1  
14.01.1991 -0,8   0,0                
15.01.1991 0,7   0,0             1  
16.01.1991 0,9   0,0             1  
17.01.1991 -1,9   0,0             1  
18.01.1991 3,9   1,3             1  
19.01.1991 2,4   2,9                
20.01.1991 6,1   37,0                
21.01.1991 3,2   9,7             1  
22.01.1991 1,9   1,0                
23.01.1991 4,8   2,4                
24.01.1991 4,1   1,8             1  
25.01.1991 3,7   1,5                
26.01.1991 3,0   2,0                
27.01.1991 0,9   3,2                
28.01.1991 1,5   1,1                
29.01.1991 2,1   2,8                
30.01.1991 2,5   1,0                
31.01.1991 0,9   0,0                
Avrg/Sum 2,5   194,8             8